sensor_id;sensor_type;location;lat;lon;timestamp;P1;durP1;ratioP1;P2;durP2;ratioP2
37231;SDS011;23125;48.156;15.954;2022-09-09T00:02:27;0.60;;;0.25;;
37231;SDS011;23125;48.156;15.954;2022-09-09T00:07:31;0.70;;;0.20;;
37231;SDS011;23125;48.156;15.954;2022-09-09T00:21:13;1.95;;;0.20;;
37231;SDS011;23125;48.156;15.954;2022-09-09T00:23:53;0.55;;;0.30;;
37231;SDS011;23125;48.156;15.954;2022-09-09T00:26:40;2.92;;;0.40;;
37231;SDS011;23125;48.156;15.954;2022-09-09T00:31:44;1.02;;;0.20;;
37231;SDS011;23125;48.156;15.954;2022-09-09T00:34:13;0.57;;;0.30;;
37231;SDS011;23125;48.156;15.954;2022-09-09T00:36:48;1.52;;;0.50;;
37231;SDS011;23125;48.156;15.954;2022-09-09T00:42:14;1.10;;;0.20;;
37231;SDS011;23125;48.156;15.954;2022-09-09T00:45:02;0.40;;;0.20;;
37231;SDS011;23125;48.156;15.954;2022-09-09T00:47:46;2.85;;;0.40;;
37231;SDS011;23125;48.156;15.954;2022-09-09T00:58:09;0.32;;;0.22;;
37231;SDS011;23125;48.156;15.954;2022-09-09T01:00:39;1.77;;;0.10;;
37231;SDS011;23125;48.156;15.954;2022-09-09T01:06:15;0.25;;;0.20;;
37231;SDS011;23125;48.156;15.954;2022-09-09T01:17:12;0.93;;;0.20;;
37231;SDS011;23125;48.156;15.954;2022-09-09T01:19:45;0.40;;;0.17;;
37231;SDS011;23125;48.156;15.954;2022-09-09T01:28:03;0.45;;;0.20;;
37231;SDS011;23125;48.156;15.954;2022-09-09T01:30:37;0.47;;;0.20;;
37231;SDS011;23125;48.156;15.954;2022-09-09T01:33:04;0.50;;;0.20;;
37231;SDS011;23125;48.156;15.954;2022-09-09T01:35:39;1.10;;;0.50;;
37231;SDS011;23125;48.156;15.954;2022-09-09T01:38:22;3.58;;;0.40;;
37231;SDS011;23125;48.156;15.954;2022-09-09T01:40:49;0.57;;;0.20;;
37231;SDS011;23125;48.156;15.954;2022-09-09T01:43:20;1.83;;;0.30;;
37231;SDS011;23125;48.156;15.954;2022-09-09T01:45:48;2.83;;;0.40;;
37231;SDS011;23125;48.156;15.954;2022-09-09T01:48:16;3.10;;;0.25;;
37231;SDS011;23125;48.156;15.954;2022-09-09T01:50:44;3.17;;;0.40;;
37231;SDS011;23125;48.156;15.954;2022-09-09T01:53:10;1.30;;;0.32;;
37231;SDS011;23125;48.156;15.954;2022-09-09T01:55:38;1.98;;;0.30;;
37231;SDS011;23125;48.156;15.954;2022-09-09T02:00:41;0.80;;;0.32;;
37231;SDS011;23125;48.156;15.954;2022-09-09T02:03:25;1.85;;;0.30;;
37231;SDS011;23125;48.156;15.954;2022-09-09T02:06:13;2.08;;;0.20;;
37231;SDS011;23125;48.156;15.954;2022-09-09T02:08:55;1.23;;;0.30;;
37231;SDS011;23125;48.156;15.954;2022-09-09T02:11:23;0.60;;;0.22;;
37231;SDS011;23125;48.156;15.954;2022-09-09T02:13:52;0.70;;;0.20;;
37231;SDS011;23125;48.156;15.954;2022-09-09T02:17:06;0.63;;;0.30;;
37231;SDS011;23125;48.156;15.954;2022-09-09T02:19:19;0.50;;;0.30;;
37231;SDS011;23125;48.156;15.954;2022-09-09T02:21:56;1.42;;;0.30;;
37231;SDS011;23125;48.156;15.954;2022-09-09T02:24:26;2.20;;;0.30;;
37231;SDS011;23125;48.156;15.954;2022-09-09T02:29:23;1.73;;;0.20;;
37231;SDS011;23125;48.156;15.954;2022-09-09T02:31:53;0.50;;;0.20;;
37231;SDS011;23125;48.156;15.954;2022-09-09T02:34:24;0.30;;;0.20;;
37231;SDS011;23125;48.156;15.954;2022-09-09T02:36:53;0.93;;;0.40;;
37231;SDS011;23125;48.156;15.954;2022-09-09T02:39:20;0.70;;;0.30;;
37231;SDS011;23125;48.156;15.954;2022-09-09T02:41:46;0.50;;;0.20;;
37231;SDS011;23125;48.156;15.954;2022-09-09T02:44:16;0.63;;;0.30;;
37231;SDS011;23125;48.156;15.954;2022-09-09T02:47:07;0.20;;;0.20;;
37231;SDS011;23125;48.156;15.954;2022-09-09T02:52:14;1.15;;;0.28;;
37231;SDS011;23125;48.156;15.954;2022-09-09T02:54:44;1.38;;;0.22;;
37231;SDS011;23125;48.156;15.954;2022-09-09T02:59:47;2.97;;;0.40;;
37231;SDS011;23125;48.156;15.954;2022-09-09T03:02:15;1.13;;;0.30;;
37231;SDS011;23125;48.156;15.954;2022-09-09T03:04:41;2.25;;;0.30;;
37231;SDS011;23125;48.156;15.954;2022-09-09T03:07:09;2.28;;;0.30;;
37231;SDS011;23125;48.156;15.954;2022-09-09T03:09:36;0.80;;;0.28;;
37231;SDS011;23125;48.156;15.954;2022-09-09T03:12:02;1.25;;;0.47;;
37231;SDS011;23125;48.156;15.954;2022-09-09T03:14:29;2.65;;;0.40;;
37231;SDS011;23125;48.156;15.954;2022-09-09T03:16:56;0.93;;;0.20;;
37231;SDS011;23125;48.156;15.954;2022-09-09T03:19:26;0.50;;;0.30;;
37231;SDS011;23125;48.156;15.954;2022-09-09T03:21:53;2.55;;;0.40;;
37231;SDS011;23125;48.156;15.954;2022-09-09T03:24:19;0.85;;;0.20;;
37231;SDS011;23125;48.156;15.954;2022-09-09T03:26:46;3.78;;;0.40;;
37231;SDS011;23125;48.156;15.954;2022-09-09T03:29:12;4.45;;;0.40;;
37231;SDS011;23125;48.156;15.954;2022-09-09T03:31:39;3.67;;;0.40;;
37231;SDS011;23125;48.156;15.954;2022-09-09T03:34:05;8.95;;;0.75;;
37231;SDS011;23125;48.156;15.954;2022-09-09T03:36:32;1.55;;;0.30;;
37231;SDS011;23125;48.156;15.954;2022-09-09T03:38:58;3.58;;;0.40;;
37231;SDS011;23125;48.156;15.954;2022-09-09T03:41:24;2.58;;;0.40;;
37231;SDS011;23125;48.156;15.954;2022-09-09T03:43:51;2.50;;;0.30;;
37231;SDS011;23125;48.156;15.954;2022-09-09T03:46:19;0.50;;;0.30;;
37231;SDS011;23125;48.156;15.954;2022-09-09T03:48:45;2.47;;;0.50;;
37231;SDS011;23125;48.156;15.954;2022-09-09T03:51:11;1.63;;;0.68;;
37231;SDS011;23125;48.156;15.954;2022-09-09T03:53:37;2.47;;;0.20;;
37231;SDS011;23125;48.156;15.954;2022-09-09T03:56:04;2.45;;;0.60;;
37231;SDS011;23125;48.156;15.954;2022-09-09T03:58:32;2.00;;;0.30;;
37231;SDS011;23125;48.156;15.954;2022-09-09T04:01:01;0.93;;;0.30;;
37231;SDS011;23125;48.156;15.954;2022-09-09T04:03:29;0.60;;;0.38;;
37231;SDS011;23125;48.156;15.954;2022-09-09T04:05:56;0.50;;;0.20;;
37231;SDS011;23125;48.156;15.954;2022-09-09T04:08:23;1.77;;;0.60;;
37231;SDS011;23125;48.156;15.954;2022-09-09T04:10:50;1.60;;;0.30;;
37231;SDS011;23125;48.156;15.954;2022-09-09T04:13:17;0.55;;;0.40;;
37231;SDS011;23125;48.156;15.954;2022-09-09T04:15:52;2.20;;;0.75;;
37231;SDS011;23125;48.156;15.954;2022-09-09T04:18:22;1.90;;;0.45;;
37231;SDS011;23125;48.156;15.954;2022-09-09T04:20:49;1.42;;;0.30;;
37231;SDS011;23125;48.156;15.954;2022-09-09T04:23:16;1.40;;;0.30;;
37231;SDS011;23125;48.156;15.954;2022-09-09T04:25:46;0.60;;;0.20;;
37231;SDS011;23125;48.156;15.954;2022-09-09T04:28:14;1.25;;;0.30;;
37231;SDS011;23125;48.156;15.954;2022-09-09T04:30:41;1.65;;;0.40;;
37231;SDS011;23125;48.156;15.954;2022-09-09T04:33:08;1.95;;;0.50;;
37231;SDS011;23125;48.156;15.954;2022-09-09T04:35:35;0.95;;;0.30;;
37231;SDS011;23125;48.156;15.954;2022-09-09T04:38:01;1.85;;;0.40;;
37231;SDS011;23125;48.156;15.954;2022-09-09T04:40:28;0.82;;;0.50;;
37231;SDS011;23125;48.156;15.954;2022-09-09T04:42:55;2.85;;;0.50;;
37231;SDS011;23125;48.156;15.954;2022-09-09T04:45:24;0.85;;;0.40;;
37231;SDS011;23125;48.156;15.954;2022-09-09T04:47:51;0.35;;;0.20;;
37231;SDS011;23125;48.156;15.954;2022-09-09T04:50:18;1.17;;;0.50;;
37231;SDS011;23125;48.156;15.954;2022-09-09T04:52:44;3.28;;;0.50;;
37231;SDS011;23125;48.156;15.954;2022-09-09T04:55:10;2.28;;;0.50;;
37231;SDS011;23125;48.156;15.954;2022-09-09T04:57:41;2.13;;;0.90;;
37231;SDS011;23125;48.156;15.954;2022-09-09T05:00:07;3.88;;;0.70;;
37231;SDS011;23125;48.156;15.954;2022-09-09T05:02:36;4.07;;;1.00;;
37231;SDS011;23125;48.156;15.954;2022-09-09T05:05:03;3.10;;;0.80;;
37231;SDS011;23125;48.156;15.954;2022-09-09T05:07:30;2.25;;;0.90;;
37231;SDS011;23125;48.156;15.954;2022-09-09T05:09:56;3.17;;;1.23;;
37231;SDS011;23125;48.156;15.954;2022-09-09T05:12:23;2.88;;;1.38;;
37231;SDS011;23125;48.156;15.954;2022-09-09T05:14:51;2.65;;;1.58;;
37231;SDS011;23125;48.156;15.954;2022-09-09T05:17:17;2.80;;;1.60;;
37231;SDS011;23125;48.156;15.954;2022-09-09T05:19:43;3.45;;;1.80;;
37231;SDS011;23125;48.156;15.954;2022-09-09T05:22:09;3.15;;;1.20;;
37231;SDS011;23125;48.156;15.954;2022-09-09T05:24:37;2.70;;;1.58;;
37231;SDS011;23125;48.156;15.954;2022-09-09T05:27:04;3.92;;;1.83;;
37231;SDS011;23125;48.156;15.954;2022-09-09T05:29:31;3.85;;;1.30;;
37231;SDS011;23125;48.156;15.954;2022-09-09T05:34:26;4.30;;;1.48;;
37231;SDS011;23125;48.156;15.954;2022-09-09T05:36:52;5.03;;;1.40;;
37231;SDS011;23125;48.156;15.954;2022-09-09T05:39:18;4.18;;;1.55;;
37231;SDS011;23125;48.156;15.954;2022-09-09T05:41:44;2.65;;;1.40;;
37231;SDS011;23125;48.156;15.954;2022-09-09T05:44:10;3.78;;;1.70;;
37231;SDS011;23125;48.156;15.954;2022-09-09T05:46:36;3.63;;;1.92;;
37231;SDS011;23125;48.156;15.954;2022-09-09T05:49:01;2.97;;;1.25;;
37231;SDS011;23125;48.156;15.954;2022-09-09T05:51:28;2.90;;;1.40;;
37231;SDS011;23125;48.156;15.954;2022-09-09T05:56:26;5.53;;;2.40;;
37231;SDS011;23125;48.156;15.954;2022-09-09T05:58:54;5.70;;;2.30;;
37231;SDS011;23125;48.156;15.954;2022-09-09T06:01:21;4.75;;;2.53;;
37231;SDS011;23125;48.156;15.954;2022-09-09T06:03:49;6.65;;;1.50;;
37231;SDS011;23125;48.156;15.954;2022-09-09T06:06:18;2.88;;;1.35;;
37231;SDS011;23125;48.156;15.954;2022-09-09T06:08:52;2.80;;;1.45;;
37231;SDS011;23125;48.156;15.954;2022-09-09T06:11:23;3.28;;;1.70;;
37231;SDS011;23125;48.156;15.954;2022-09-09T06:13:56;5.32;;;1.88;;
37231;SDS011;23125;48.156;15.954;2022-09-09T06:16:23;3.42;;;1.67;;
37231;SDS011;23125;48.156;15.954;2022-09-09T06:18:52;2.83;;;1.40;;
37231;SDS011;23125;48.156;15.954;2022-09-09T06:21:23;3.47;;;1.55;;
37231;SDS011;23125;48.156;15.954;2022-09-09T06:23:54;2.22;;;0.80;;
37231;SDS011;23125;48.156;15.954;2022-09-09T06:26:21;2.28;;;0.85;;
37231;SDS011;23125;48.156;15.954;2022-09-09T06:28:52;3.03;;;0.90;;
37231;SDS011;23125;48.156;15.954;2022-09-09T06:33:47;3.15;;;1.00;;
37231;SDS011;23125;48.156;15.954;2022-09-09T06:36:18;1.40;;;0.88;;
37231;SDS011;23125;48.156;15.954;2022-09-09T06:38:45;3.85;;;1.05;;
37231;SDS011;23125;48.156;15.954;2022-09-09T06:41:13;1.85;;;0.80;;
37231;SDS011;23125;48.156;15.954;2022-09-09T06:43:40;2.67;;;0.98;;
37231;SDS011;23125;48.156;15.954;2022-09-09T06:48:34;2.45;;;0.85;;
37231;SDS011;23125;48.156;15.954;2022-09-09T06:53:28;2.03;;;0.80;;
37231;SDS011;23125;48.156;15.954;2022-09-09T06:55:54;2.70;;;1.02;;
37231;SDS011;23125;48.156;15.954;2022-09-09T06:58:20;3.53;;;0.73;;
37231;SDS011;23125;48.156;15.954;2022-09-09T07:00:49;1.90;;;0.57;;
37231;SDS011;23125;48.156;15.954;2022-09-09T07:03:15;2.33;;;0.65;;
37231;SDS011;23125;48.156;15.954;2022-09-09T07:05:40;2.15;;;0.80;;
37231;SDS011;23125;48.156;15.954;2022-09-09T07:08:06;5.57;;;0.75;;
37231;SDS011;23125;48.156;15.954;2022-09-09T07:10:32;0.85;;;0.40;;
37231;SDS011;23125;48.156;15.954;2022-09-09T07:12:59;1.77;;;0.43;;
37231;SDS011;23125;48.156;15.954;2022-09-09T07:15:26;1.20;;;0.50;;
37231;SDS011;23125;48.156;15.954;2022-09-09T07:17:52;1.70;;;0.60;;
37231;SDS011;23125;48.156;15.954;2022-09-09T07:20:19;1.52;;;0.45;;
37231;SDS011;23125;48.156;15.954;2022-09-09T07:22:45;1.48;;;0.77;;
37231;SDS011;23125;48.156;15.954;2022-09-09T07:25:11;1.95;;;0.68;;
37231;SDS011;23125;48.156;15.954;2022-09-09T07:27:37;1.05;;;0.50;;
37231;SDS011;23125;48.156;15.954;2022-09-09T07:30:03;1.38;;;0.50;;
37231;SDS011;23125;48.156;15.954;2022-09-09T07:32:30;1.50;;;0.40;;
37231;SDS011;23125;48.156;15.954;2022-09-09T07:34:55;1.90;;;0.52;;
37231;SDS011;23125;48.156;15.954;2022-09-09T07:37:23;3.08;;;0.80;;
37231;SDS011;23125;48.156;15.954;2022-09-09T07:39:49;2.58;;;0.70;;
37231;SDS011;23125;48.156;15.954;2022-09-09T07:42:16;1.92;;;0.70;;
37231;SDS011;23125;48.156;15.954;2022-09-09T07:44:42;0.90;;;0.43;;
37231;SDS011;23125;48.156;15.954;2022-09-09T07:47:08;2.17;;;0.70;;
37231;SDS011;23125;48.156;15.954;2022-09-09T07:49:34;1.02;;;0.60;;
37231;SDS011;23125;48.156;15.954;2022-09-09T07:52:00;1.10;;;0.50;;
37231;SDS011;23125;48.156;15.954;2022-09-09T07:54:25;1.35;;;0.50;;
37231;SDS011;23125;48.156;15.954;2022-09-09T07:56:52;1.42;;;0.50;;
37231;SDS011;23125;48.156;15.954;2022-09-09T07:59:18;1.23;;;0.35;;
37231;SDS011;23125;48.156;15.954;2022-09-09T08:01:51;2.05;;;0.63;;
37231;SDS011;23125;48.156;15.954;2022-09-09T08:04:20;1.92;;;0.50;;
37231;SDS011;23125;48.156;15.954;2022-09-09T08:06:50;3.60;;;0.70;;
37231;SDS011;23125;48.156;15.954;2022-09-09T08:09:21;1.35;;;0.68;;
37231;SDS011;23125;48.156;15.954;2022-09-09T08:11:54;1.50;;;0.43;;
37231;SDS011;23125;48.156;15.954;2022-09-09T08:14:22;6.13;;;0.52;;
37231;SDS011;23125;48.156;15.954;2022-09-09T08:16:48;1.67;;;0.40;;
37231;SDS011;23125;48.156;15.954;2022-09-09T08:19:15;2.45;;;0.45;;
37231;SDS011;23125;48.156;15.954;2022-09-09T08:21:42;0.60;;;0.38;;
37231;SDS011;23125;48.156;15.954;2022-09-09T08:24:10;0.90;;;0.50;;
37231;SDS011;23125;48.156;15.954;2022-09-09T08:26:41;1.13;;;0.43;;
37231;SDS011;23125;48.156;15.954;2022-09-09T08:29:09;1.17;;;0.30;;
37231;SDS011;23125;48.156;15.954;2022-09-09T08:31:37;0.77;;;0.30;;
37231;SDS011;23125;48.156;15.954;2022-09-09T08:34:08;0.95;;;0.40;;
37231;SDS011;23125;48.156;15.954;2022-09-09T08:36:40;2.80;;;0.80;;
37231;SDS011;23125;48.156;15.954;2022-09-09T08:39:08;0.77;;;0.30;;
37231;SDS011;23125;48.156;15.954;2022-09-09T08:52:29;0.75;;;0.30;;
37231;SDS011;23125;48.156;15.954;2022-09-09T08:58:17;0.68;;;0.30;;
37231;SDS011;23125;48.156;15.954;2022-09-09T09:09:01;0.60;;;0.25;;
37231;SDS011;23125;48.156;15.954;2022-09-09T09:11:41;0.80;;;0.30;;
37231;SDS011;23125;48.156;15.954;2022-09-09T09:14:17;0.50;;;0.30;;
37231;SDS011;23125;48.156;15.954;2022-09-09T09:16:59;0.82;;;0.30;;
37231;SDS011;23125;48.156;15.954;2022-09-09T09:19:28;1.70;;;0.30;;
37231;SDS011;23125;48.156;15.954;2022-09-09T09:22:04;1.58;;;0.30;;
37231;SDS011;23125;48.156;15.954;2022-09-09T09:27:34;1.50;;;0.45;;
37231;SDS011;23125;48.156;15.954;2022-09-09T09:30:18;1.40;;;0.30;;
37231;SDS011;23125;48.156;15.954;2022-09-09T09:35:31;1.23;;;0.35;;
37231;SDS011;23125;48.156;15.954;2022-09-09T09:37:57;1.30;;;0.20;;
37231;SDS011;23125;48.156;15.954;2022-09-09T09:43:00;1.38;;;0.30;;
37231;SDS011;23125;48.156;15.954;2022-09-09T09:45:28;0.75;;;0.20;;
37231;SDS011;23125;48.156;15.954;2022-09-09T09:48:06;1.48;;;0.40;;
37231;SDS011;23125;48.156;15.954;2022-09-09T09:50:39;0.82;;;0.30;;
37231;SDS011;23125;48.156;15.954;2022-09-09T09:53:21;1.23;;;0.35;;
37231;SDS011;23125;48.156;15.954;2022-09-09T09:55:56;0.15;;;0.15;;
37231;SDS011;23125;48.156;15.954;2022-09-09T09:58:27;1.17;;;0.20;;
37231;SDS011;23125;48.156;15.954;2022-09-09T10:00:58;0.50;;;0.30;;
37231;SDS011;23125;48.156;15.954;2022-09-09T10:03:32;0.57;;;0.17;;
37231;SDS011;23125;48.156;15.954;2022-09-09T10:06:05;1.27;;;0.30;;
37231;SDS011;23125;48.156;15.954;2022-09-09T10:08:34;0.85;;;0.22;;
37231;SDS011;23125;48.156;15.954;2022-09-09T10:16:48;0.30;;;0.25;;
37231;SDS011;23125;48.156;15.954;2022-09-09T10:19:41;0.25;;;0.22;;
37231;SDS011;23125;48.156;15.954;2022-09-09T10:24:56;0.55;;;0.45;;
37231;SDS011;23125;48.156;15.954;2022-09-09T10:27:49;0.60;;;0.30;;
37231;SDS011;23125;48.156;15.954;2022-09-09T10:33:26;0.30;;;0.30;;
37231;SDS011;23125;48.156;15.954;2022-09-09T10:38:39;0.85;;;0.28;;
37231;SDS011;23125;48.156;15.954;2022-09-09T10:55:09;0.40;;;0.30;;
37231;SDS011;23125;48.156;15.954;2022-09-09T10:57:43;1.00;;;0.30;;
37231;SDS011;23125;48.156;15.954;2022-09-09T11:00:22;1.00;;;0.38;;
37231;SDS011;23125;48.156;15.954;2022-09-09T11:03:01;0.65;;;0.40;;
37231;SDS011;23125;48.156;15.954;2022-09-09T11:08:30;0.20;;;0.20;;
37231;SDS011;23125;48.156;15.954;2022-09-09T11:19:04;1.48;;;0.40;;
37231;SDS011;23125;48.156;15.954;2022-09-09T11:22:00;0.68;;;0.30;;
37231;SDS011;23125;48.156;15.954;2022-09-09T11:32:15;1.30;;;0.30;;
37231;SDS011;23125;48.156;15.954;2022-09-09T11:38:11;1.70;;;0.30;;
37231;SDS011;23125;48.156;15.954;2022-09-09T11:40:46;0.30;;;0.28;;
37231;SDS011;23125;48.156;15.954;2022-09-09T11:43:30;0.95;;;0.60;;
37231;SDS011;23125;48.156;15.954;2022-09-09T11:46:01;1.00;;;0.30;;
37231;SDS011;23125;48.156;15.954;2022-09-09T11:48:32;1.13;;;0.50;;
37231;SDS011;23125;48.156;15.954;2022-09-09T11:53:50;1.38;;;0.30;;
37231;SDS011;23125;48.156;15.954;2022-09-09T11:59:22;1.13;;;0.40;;
37231;SDS011;23125;48.156;15.954;2022-09-09T12:01:57;0.70;;;0.50;;
37231;SDS011;23125;48.156;15.954;2022-09-09T12:04:39;0.28;;;0.28;;
37231;SDS011;23125;48.156;15.954;2022-09-09T12:09:42;2.63;;;0.50;;
37231;SDS011;23125;48.156;15.954;2022-09-09T12:12:24;2.08;;;0.30;;
37231;SDS011;23125;48.156;15.954;2022-09-09T12:14:56;0.75;;;0.40;;
37231;SDS011;23125;48.156;15.954;2022-09-09T12:17:44;1.50;;;0.30;;
37231;SDS011;23125;48.156;15.954;2022-09-09T12:28:18;0.85;;;0.30;;
37231;SDS011;23125;48.156;15.954;2022-09-09T12:31:05;1.67;;;0.40;;
37231;SDS011;23125;48.156;15.954;2022-09-09T12:33:51;1.25;;;0.40;;
37231;SDS011;23125;48.156;15.954;2022-09-09T12:36:19;1.35;;;0.47;;
37231;SDS011;23125;48.156;15.954;2022-09-09T12:38:58;0.52;;;0.30;;
37231;SDS011;23125;48.156;15.954;2022-09-09T12:41:51;1.80;;;0.47;;
37231;SDS011;23125;48.156;15.954;2022-09-09T12:44:22;1.15;;;0.50;;
37231;SDS011;23125;48.156;15.954;2022-09-09T12:46:50;0.63;;;0.40;;
37231;SDS011;23125;48.156;15.954;2022-09-09T12:49:31;2.33;;;0.40;;
37231;SDS011;23125;48.156;15.954;2022-09-09T12:52:02;1.10;;;0.30;;
37231;SDS011;23125;48.156;15.954;2022-09-09T12:54:32;0.95;;;0.40;;
37231;SDS011;23125;48.156;15.954;2022-09-09T12:59:27;1.40;;;0.57;;
37231;SDS011;23125;48.156;15.954;2022-09-09T13:02:23;0.60;;;0.30;;
37231;SDS011;23125;48.156;15.954;2022-09-09T13:04:51;1.42;;;0.60;;
37231;SDS011;23125;48.156;15.954;2022-09-09T13:07:19;2.43;;;0.60;;
37231;SDS011;23125;48.156;15.954;2022-09-09T13:09:47;1.50;;;0.80;;
37231;SDS011;23125;48.156;15.954;2022-09-09T13:12:15;2.03;;;0.88;;
37231;SDS011;23125;48.156;15.954;2022-09-09T13:14:45;1.77;;;0.80;;
37231;SDS011;23125;48.156;15.954;2022-09-09T13:17:24;1.55;;;0.60;;
37231;SDS011;23125;48.156;15.954;2022-09-09T13:19:54;1.30;;;0.55;;
37231;SDS011;23125;48.156;15.954;2022-09-09T13:39:52;4.60;;;0.88;;
37231;SDS011;23125;48.156;15.954;2022-09-09T13:42:26;3.17;;;1.02;;
37231;SDS011;23125;48.156;15.954;2022-09-09T13:44:55;4.10;;;0.88;;
37231;SDS011;23125;48.156;15.954;2022-09-09T13:47:26;2.85;;;1.20;;
37231;SDS011;23125;48.156;15.954;2022-09-09T13:49:58;2.53;;;0.60;;
37231;SDS011;23125;48.156;15.954;2022-09-09T13:52:52;1.92;;;0.60;;
37231;SDS011;23125;48.156;15.954;2022-09-09T13:55:20;1.45;;;0.50;;
37231;SDS011;23125;48.156;15.954;2022-09-09T13:57:55;2.23;;;0.67;;
37231;SDS011;23125;48.156;15.954;2022-09-09T14:00:25;3.15;;;0.52;;
37231;SDS011;23125;48.156;15.954;2022-09-09T14:02:53;2.03;;;0.75;;
37231;SDS011;23125;48.156;15.954;2022-09-09T14:05:20;2.90;;;0.80;;
37231;SDS011;23125;48.156;15.954;2022-09-09T14:07:48;2.53;;;1.10;;
37231;SDS011;23125;48.156;15.954;2022-09-09T14:10:15;2.08;;;1.02;;
37231;SDS011;23125;48.156;15.954;2022-09-09T14:12:41;3.80;;;1.02;;
37231;SDS011;23125;48.156;15.954;2022-09-09T14:15:09;2.58;;;0.95;;
37231;SDS011;23125;48.156;15.954;2022-09-09T14:17:35;1.92;;;0.80;;
37231;SDS011;23125;48.156;15.954;2022-09-09T14:20:04;2.63;;;0.70;;
37231;SDS011;23125;48.156;15.954;2022-09-09T14:22:33;2.05;;;0.60;;
37231;SDS011;23125;48.156;15.954;2022-09-09T14:24:59;2.13;;;0.60;;
37231;SDS011;23125;48.156;15.954;2022-09-09T14:27:25;1.65;;;0.60;;
37231;SDS011;23125;48.156;15.954;2022-09-09T14:29:51;2.08;;;0.80;;
37231;SDS011;23125;48.156;15.954;2022-09-09T14:32:18;1.55;;;0.60;;
37231;SDS011;23125;48.156;15.954;2022-09-09T14:34:45;2.15;;;0.63;;
37231;SDS011;23125;48.156;15.954;2022-09-09T14:37:10;2.97;;;0.70;;
37231;SDS011;23125;48.156;15.954;2022-09-09T14:39:36;2.20;;;0.63;;
37231;SDS011;23125;48.156;15.954;2022-09-09T14:42:02;1.20;;;0.63;;
37231;SDS011;23125;48.156;15.954;2022-09-09T14:44:29;2.85;;;0.70;;
37231;SDS011;23125;48.156;15.954;2022-09-09T14:46:55;1.63;;;0.90;;
37231;SDS011;23125;48.156;15.954;2022-09-09T14:49:21;1.73;;;0.90;;
37231;SDS011;23125;48.156;15.954;2022-09-09T14:51:47;3.38;;;0.90;;
37231;SDS011;23125;48.156;15.954;2022-09-09T14:54:13;1.63;;;0.70;;
37231;SDS011;23125;48.156;15.954;2022-09-09T14:56:39;1.50;;;0.85;;
37231;SDS011;23125;48.156;15.954;2022-09-09T14:59:05;1.75;;;1.00;;
37231;SDS011;23125;48.156;15.954;2022-09-09T15:01:31;1.77;;;0.95;;
37231;SDS011;23125;48.156;15.954;2022-09-09T15:03:59;1.85;;;1.00;;
37231;SDS011;23125;48.156;15.954;2022-09-09T15:06:29;2.42;;;0.90;;
37231;SDS011;23125;48.156;15.954;2022-09-09T15:08:58;1.92;;;1.00;;
37231;SDS011;23125;48.156;15.954;2022-09-09T15:11:28;3.58;;;0.93;;
37231;SDS011;23125;48.156;15.954;2022-09-09T15:13:57;2.25;;;0.90;;
37231;SDS011;23125;48.156;15.954;2022-09-09T15:16:24;2.28;;;1.02;;
37231;SDS011;23125;48.156;15.954;2022-09-09T15:21:21;2.58;;;1.35;;
37231;SDS011;23125;48.156;15.954;2022-09-09T15:23:48;2.83;;;1.00;;
37231;SDS011;23125;48.156;15.954;2022-09-09T15:26:16;3.90;;;1.38;;
37231;SDS011;23125;48.156;15.954;2022-09-09T15:28:43;2.25;;;1.02;;
37231;SDS011;23125;48.156;15.954;2022-09-09T15:31:11;4.07;;;1.88;;
37231;SDS011;23125;48.156;15.954;2022-09-09T15:33:49;2.88;;;1.25;;
37231;SDS011;23125;48.156;15.954;2022-09-09T15:38:47;3.25;;;1.23;;
37231;SDS011;23125;48.156;15.954;2022-09-09T15:41:14;1.48;;;1.00;;
37231;SDS011;23125;48.156;15.954;2022-09-09T15:43:46;3.55;;;1.17;;
37231;SDS011;23125;48.156;15.954;2022-09-09T15:48:49;2.00;;;1.00;;
37231;SDS011;23125;48.156;15.954;2022-09-09T15:51:16;2.88;;;1.25;;
37231;SDS011;23125;48.156;15.954;2022-09-09T15:53:42;2.05;;;1.20;;
37231;SDS011;23125;48.156;15.954;2022-09-09T15:56:08;2.75;;;1.00;;
37231;SDS011;23125;48.156;15.954;2022-09-09T15:58:35;5.80;;;1.27;;
37231;SDS011;23125;48.156;15.954;2022-09-09T16:03:36;3.13;;;0.85;;
37231;SDS011;23125;48.156;15.954;2022-09-09T16:06:03;4.13;;;1.30;;
37231;SDS011;23125;48.156;15.954;2022-09-09T16:08:31;2.38;;;0.80;;
37231;SDS011;23125;48.156;15.954;2022-09-09T16:11:08;2.08;;;0.98;;
37231;SDS011;23125;48.156;15.954;2022-09-09T16:13:38;1.50;;;0.82;;
37231;SDS011;23125;48.156;15.954;2022-09-09T16:16:05;1.63;;;0.85;;
37231;SDS011;23125;48.156;15.954;2022-09-09T16:18:36;2.38;;;1.10;;
37231;SDS011;23125;48.156;15.954;2022-09-09T16:21:04;1.45;;;1.02;;
37231;SDS011;23125;48.156;15.954;2022-09-09T16:23:31;1.15;;;0.85;;
37231;SDS011;23125;48.156;15.954;2022-09-09T16:25:57;1.42;;;1.08;;
37231;SDS011;23125;48.156;15.954;2022-09-09T16:28:24;2.72;;;1.30;;
37231;SDS011;23125;48.156;15.954;2022-09-09T16:30:50;5.05;;;1.30;;
37231;SDS011;23125;48.156;15.954;2022-09-09T16:33:17;1.92;;;1.08;;
37231;SDS011;23125;48.156;15.954;2022-09-09T16:35:43;1.90;;;1.20;;
37231;SDS011;23125;48.156;15.954;2022-09-09T16:38:09;3.47;;;1.20;;
37231;SDS011;23125;48.156;15.954;2022-09-09T16:40:38;2.03;;;1.38;;
37231;SDS011;23125;48.156;15.954;2022-09-09T16:43:06;1.60;;;1.10;;
37231;SDS011;23125;48.156;15.954;2022-09-09T16:45:41;2.28;;;1.38;;
37231;SDS011;23125;48.156;15.954;2022-09-09T16:48:08;1.83;;;1.38;;
37231;SDS011;23125;48.156;15.954;2022-09-09T16:50:34;2.90;;;1.83;;
37231;SDS011;23125;48.156;15.954;2022-09-09T16:53:00;6.80;;;2.50;;
37231;SDS011;23125;48.156;15.954;2022-09-09T16:55:31;2.45;;;1.30;;
37231;SDS011;23125;48.156;15.954;2022-09-09T16:57:57;2.53;;;1.40;;
37231;SDS011;23125;48.156;15.954;2022-09-09T17:00:23;2.88;;;1.83;;
37231;SDS011;23125;48.156;15.954;2022-09-09T17:02:49;1.73;;;1.40;;
37231;SDS011;23125;48.156;15.954;2022-09-09T17:05:15;1.70;;;1.15;;
37231;SDS011;23125;48.156;15.954;2022-09-09T17:07:41;2.15;;;1.23;;
37231;SDS011;23125;48.156;15.954;2022-09-09T17:10:09;1.92;;;1.08;;
37231;SDS011;23125;48.156;15.954;2022-09-09T17:12:34;2.35;;;1.08;;
37231;SDS011;23125;48.156;15.954;2022-09-09T17:15:00;4.13;;;1.65;;
37231;SDS011;23125;48.156;15.954;2022-09-09T17:17:28;3.65;;;1.20;;
37231;SDS011;23125;48.156;15.954;2022-09-09T17:19:54;1.20;;;0.88;;
37231;SDS011;23125;48.156;15.954;2022-09-09T17:22:20;2.55;;;1.02;;
37231;SDS011;23125;48.156;15.954;2022-09-09T17:24:46;2.10;;;0.95;;
37231;SDS011;23125;48.156;15.954;2022-09-09T17:27:12;2.53;;;1.38;;
37231;SDS011;23125;48.156;15.954;2022-09-09T17:29:38;3.20;;;1.20;;
37231;SDS011;23125;48.156;15.954;2022-09-09T17:32:05;1.73;;;0.90;;
37231;SDS011;23125;48.156;15.954;2022-09-09T17:34:32;2.17;;;1.25;;
37231;SDS011;23125;48.156;15.954;2022-09-09T17:36:59;2.88;;;0.82;;
37231;SDS011;23125;48.156;15.954;2022-09-09T17:39:25;3.25;;;0.90;;
37231;SDS011;23125;48.156;15.954;2022-09-09T17:41:51;1.98;;;1.15;;
37231;SDS011;23125;48.156;15.954;2022-09-09T17:44:18;4.57;;;0.98;;
37231;SDS011;23125;48.156;15.954;2022-09-09T17:46:44;1.83;;;1.10;;
37231;SDS011;23125;48.156;15.954;2022-09-09T17:49:11;2.15;;;1.13;;
37231;SDS011;23125;48.156;15.954;2022-09-09T17:51:39;1.97;;;0.70;;
37231;SDS011;23125;48.156;15.954;2022-09-09T17:54:08;2.45;;;1.00;;
37231;SDS011;23125;48.156;15.954;2022-09-09T17:56:36;0.88;;;0.63;;
37231;SDS011;23125;48.156;15.954;2022-09-09T17:59:04;2.10;;;0.52;;
37231;SDS011;23125;48.156;15.954;2022-09-09T18:01:33;2.07;;;1.00;;
37231;SDS011;23125;48.156;15.954;2022-09-09T18:04:02;1.70;;;0.80;;